Terminal Aerodrome Forecast
Issued by NWS

Home |  Current Version |  Previous Version |  Text Only |  Print | Product List |  Glossary On
Versions: 1 2 3 4 5 6 7 8 9 10 11 12 13 14 15 16
388
FTPQ31 PGUM 190533
TAFTYA
TAF
PTYA 190533Z 1906/2006 VRB06KT P6SM VCSH SCT018 SCT130=